Time;durP1;ratioP1;P1;durP2;ratioP2;P2;SDS_P1;SDS_P2;PMS_P1;PMS_P2;Temp;Humidity;BMP_temperature;BMP_pressure;BME280_temperature;BME280_humidity;BME280_pressure;Samples;Min_cycle;Max_cycle;Signal;HPM_P1;HPM_P2
2023/01/27 00:00:17;;;;;;;9.23;2.22;;;5.30;99.90;;;;;;5009083;28;20048;-86
2023/01/27 00:02:44;;;;;;;8.77;2.25;;;5.30;99.90;;;;;;5038876;28;20124;-85
2023/01/27 00:05:11;;;;;;;5.90;2.40;;;5.20;99.90;;;;;;5039930;28;20411;-84
2023/01/27 00:07:38;;;;;;;9.35;2.30;;;5.20;99.90;;;;;;5026299;28;20057;-84
2023/01/27 00:10:04;;;;;;;6.10;2.15;;;5.20;99.90;;;;;;5038468;28;20137;-84
2023/01/27 00:15:15;;;;;;;12.45;3.63;;;5.10;99.90;;;;;;5029338;28;20118;-85
2023/01/27 00:17:41;;;;;;;11.00;3.53;;;5.10;99.90;;;;;;5007852;28;20053;-84
2023/01/27 00:20:09;;;;;;;10.20;3.50;;;5.10;99.90;;;;;;5026377;28;20049;-84
2023/01/27 00:25:18;;;;;;;9.75;4.82;;;5.00;99.90;;;;;;5043516;28;20115;-84
2023/01/27 00:27:44;;;;;;;8.13;4.50;;;5.00;99.90;;;;;;5023033;28;20053;-84
2023/01/27 00:30:11;;;;;;;8.57;4.60;;;5.00;99.90;;;;;;5012147;28;20105;-85
2023/01/27 00:35:22;;;;;;;15.02;5.20;;;5.00;99.90;;;;;;5040552;28;20647;-85
2023/01/27 00:37:48;;;;;;;9.80;5.32;;;5.00;99.90;;;;;;5027228;28;20445;-85
2023/01/27 00:40:15;;;;;;;11.68;5.72;;;5.00;99.90;;;;;;5012569;28;20060;-83
2023/01/27 00:42:42;;;;;;;11.57;5.93;;;5.00;99.90;;;;;;5030598;28;20044;-84
2023/01/27 00:47:53;;;;;;;9.80;5.47;;;5.00;99.90;;;;;;5038943;28;20057;-85
2023/01/27 00:50:20;;;;;;;12.35;5.25;;;5.00;99.90;;;;;;5030216;28;20041;-85
2023/01/27 00:52:46;;;;;;;10.30;5.13;;;4.90;99.90;;;;;;5030900;28;20500;-85
2023/01/27 00:55:14;;;;;;;8.90;4.47;;;5.00;99.90;;;;;;5027519;28;20072;-84
2023/01/27 00:57:41;;;;;;;8.93;4.47;;;4.90;99.90;;;;;;5027454;28;20606;-84
2023/01/27 01:00:09;;;;;;;7.22;4.25;;;4.80;99.90;;;;;;5025735;28;20060;-85
2023/01/27 01:02:35;;;;;;;8.30;3.88;;;4.80;99.90;;;;;;5027955;28;20053;-85
2023/01/27 01:05:01;;;;;;;8.02;3.72;;;4.80;99.90;;;;;;5035156;28;20049;-86
2023/01/27 01:07:33;;;;;;;7.47;3.45;;;4.70;99.90;;;;;;5018898;28;20053;-85
2023/01/27 01:09:59;;;;;;;5.63;3.30;;;4.70;99.90;;;;;;5020247;28;20083;-86
2023/01/27 01:12:25;;;;;;;9.45;3.80;;;4.70;99.90;;;;;;4992646;28;20057;-85
2023/01/27 01:14:50;;;;;;;6.25;3.42;;;4.70;99.90;;;;;;5020688;28;20072;-85
2023/01/27 01:17:16;;;;;;;6.43;3.25;;;4.70;99.90;;;;;;5008109;28;20138;-85
2023/01/27 01:19:42;;;;;;;7.47;2.97;;;4.60;99.90;;;;;;5023968;28;20045;-85
2023/01/27 01:22:08;;;;;;;6.22;2.78;;;4.60;99.90;;;;;;5017403;28;20077;-85
2023/01/27 01:24:33;;;;;;;5.65;2.92;;;4.10;99.90;;;;;;5031431;28;20057;-87
2023/01/27 01:26:59;;;;;;;7.40;2.72;;;4.60;99.90;;;;;;5029448;28;20057;-86
2023/01/27 01:29:25;;;;;;;8.13;2.90;;;4.60;99.90;;;;;;5015352;28;20044;-85
2023/01/27 01:31:51;;;;;;;10.73;2.85;;;5.00;99.90;;;;;;5013627;28;20556;-85
2023/01/27 01:34:17;;;;;;;5.20;2.50;;;4.50;99.90;;;;;;5027489;28;20048;-85
2023/01/27 01:36:43;;;;;;;7.88;2.63;;;4.50;99.90;;;;;;5060969;28;20493;-85
2023/01/27 01:39:08;;;;;;;8.15;2.70;;;4.60;99.90;;;;;;5048814;28;20305;-84
2023/01/27 01:41:34;;;;;;;11.13;2.45;;;4.70;99.90;;;;;;5029345;28;20190;-85
2023/01/27 01:44:23;;;;;;;6.22;2.60;;;4.70;99.90;;;;;;5015223;28;20076;-85
2023/01/27 01:46:49;;;;;;;8.82;2.40;;;4.40;99.90;;;;;;5028057;28;20045;-85
2023/01/27 01:49:18;;;;;;;6.75;2.22;;;4.50;99.90;;;;;;5011782;28;20080;-85
2023/01/27 01:51:49;;;;;;;9.65;2.60;;;4.60;99.90;;;;;;5031514;28;20574;-85
2023/01/27 01:54:19;;;;;;;5.50;2.30;;;4.50;99.90;;;;;;5044821;28;20057;-86
2023/01/27 01:57:03;;;;;;;8.02;2.50;;;4.60;99.90;;;;;;5049598;28;21063;-84
2023/01/27 01:59:37;;;;;;;7.82;2.17;;;4.50;99.90;;;;;;5062239;28;20045;-85
2023/01/27 02:02:09;;;;;;;6.88;2.38;;;4.40;99.90;;;;;;5034864;28;20045;-86
2023/01/27 02:05:03;;;;;;;4.85;1.83;;;4.30;99.90;;;;;;5050042;28;20048;-86
2023/01/27 02:07:41;;;;;;;7.97;2.38;;;4.30;99.90;;;;;;5033626;28;20045;-84
2023/01/27 02:10:07;;;;;;;5.80;2.10;;;4.20;99.90;;;;;;5043678;28;20124;-84
2023/01/27 02:12:32;;;;;;;6.15;2.08;;;4.20;99.90;;;;;;5034093;28;20140;-84
2023/01/27 02:14:58;;;;;;;8.05;2.40;;;4.10;99.90;;;;;;5029398;28;20099;-85
2023/01/27 02:17:24;;;;;;;8.73;2.17;;;4.00;99.90;;;;;;5032758;28;20479;-84
2023/01/27 02:20:22;;;;;;;7.53;2.30;;;2.80;99.90;;;;;;5044039;28;20046;-84
2023/01/27 02:23:20;;;;;;;3.70;1.67;;;3.90;99.90;;;;;;5045133;28;20047;-84
2023/01/27 02:25:50;;;;;;;4.72;1.65;;;5.50;99.90;;;;;;5010266;28;20053;-85
2023/01/27 02:28:16;;;;;;;7.00;1.77;;;3.90;99.90;;;;;;5044151;28;20064;-84
2023/01/27 02:30:41;;;;;;;6.25;1.80;;;3.90;99.90;;;;;;5029838;28;20402;-84
2023/01/27 02:33:14;;;;;;;5.90;2.20;;;3.80;99.90;;;;;;5030365;28;20535;-84
2023/01/27 02:35:54;;;;;;;5.90;1.92;;;3.80;99.90;;;;;;5029033;28;20059;-84
2023/01/27 02:38:20;;;;;;;5.35;2.00;;;3.90;99.90;;;;;;5039787;28;20064;-84
2023/01/27 02:40:50;;;;;;;8.07;1.90;;;3.90;99.90;;;;;;5027108;28;20039;-85
2023/01/27 02:43:15;;;;;;;7.65;2.00;;;3.90;99.90;;;;;;5027603;28;20159;-85
2023/01/27 02:45:42;;;;;;;5.18;1.52;;;3.80;99.90;;;;;;5026006;28;20136;-84
2023/01/27 02:48:07;;;;;;;6.65;1.70;;;2.70;99.90;;;;;;5045775;28;20191;-85
2023/01/27 02:50:33;;;;;;;4.53;1.60;;;3.70;99.90;;;;;;5037492;28;20545;-85
2023/01/27 02:52:59;;;;;;;5.50;1.80;;;3.70;99.90;;;;;;5006693;28;20060;-84
2023/01/27 02:55:25;;;;;;;3.53;1.50;;;3.70;99.90;;;;;;5024749;28;20151;-84
2023/01/27 02:57:51;;;;;;;3.80;1.55;;;3.70;99.90;;;;;;5029165;28;20060;-85
2023/01/27 03:00:17;;;;;;;5.18;1.77;;;3.60;99.90;;;;;;5039458;28;20053;-85
2023/01/27 03:02:43;;;;;;;3.08;1.67;;;2.40;99.90;;;;;;5012083;28;20052;-85
2023/01/27 03:05:10;;;;;;;4.15;1.40;;;3.40;99.90;;;;;;5021858;28;20049;-85
2023/01/27 03:07:36;;;;;;;5.72;1.73;;;3.40;99.90;;;;;;5029197;28;20140;-86
2023/01/27 03:10:02;;;;;;;3.70;2.10;;;3.40;99.90;;;;;;5029865;28;20422;-85
2023/01/27 03:12:28;;;;;;;4.97;1.77;;;3.40;99.90;;;;;;5011204;28;20111;-85
2023/01/27 03:20:22;;;;;;;3.95;1.25;;;3.40;99.90;;;;;;5032204;28;20134;-84
2023/01/27 03:22:49;;;;;;;3.05;1.30;;;3.80;99.90;;;;;;5025152;28;20071;-84
2023/01/27 03:25:15;;;;;;;3.72;1.40;;;3.60;99.90;;;;;;5027870;28;21014;-85
2023/01/27 03:27:41;;;;;;;4.25;1.25;;;3.50;99.90;;;;;;5030000;28;20067;-85
2023/01/27 03:30:09;;;;;;;4.28;1.10;;;3.50;99.90;;;;;;5045771;28;20041;-87
2023/01/27 03:32:35;;;;;;;3.22;1.13;;;3.40;99.90;;;;;;5017557;28;20053;-84
2023/01/27 03:35:04;;;;;;;3.75;1.23;;;3.40;99.90;;;;;;5023532;28;20067;-85
2023/01/27 03:48:35;;;;;;;9.50;1.52;;;3.50;99.90;;;;;;5054502;28;20052;-85
2023/01/27 03:51:02;;;;;;;4.20;1.48;;;3.40;99.90;;;;;;5040355;28;20124;-84
2023/01/27 03:53:28;;;;;;;5.65;1.40;;;3.50;99.90;;;;;;5020242;28;20049;-86
2023/01/27 03:55:54;;;;;;;5.72;1.60;;;3.50;99.90;;;;;;5040843;28;20048;-85
2023/01/27 03:58:26;;;;;;;2.60;1.20;;;3.40;99.90;;;;;;5028424;28;20102;-85
2023/01/27 04:00:55;;;;;;;4.05;1.40;;;3.40;99.90;;;;;;5027993;28;20049;-84
2023/01/27 04:09:02;;;;;;;4.90;1.63;;;3.50;99.90;;;;;;5040235;28;20123;-84
2023/01/27 04:14:13;;;;;;;3.30;1.30;;;3.50;99.90;;;;;;5030683;28;20049;-86
2023/01/27 04:16:39;;;;;;;4.43;1.73;;;3.50;99.90;;;;;;5056393;28;20091;-85
2023/01/27 04:19:07;;;;;;;5.88;1.48;;;3.70;99.90;;;;;;5018632;28;20075;-85
2023/01/27 04:21:34;;;;;;;4.45;1.63;;;3.70;99.90;;;;;;5019738;28;20045;-86
2023/01/27 04:24:00;;;;;;;6.35;1.55;;;2.40;99.90;;;;;;5025699;28;20063;-84
2023/01/27 04:26:33;;;;;;;3.97;1.67;;;3.40;99.90;;;;;;5018963;28;20063;-85
2023/01/27 04:29:03;;;;;;;4.07;1.27;;;3.40;99.90;;;;;;5018068;28;20048;-84
2023/01/27 04:31:31;;;;;;;4.13;1.70;;;3.40;99.90;;;;;;5035337;28;20056;-85
2023/01/27 04:33:57;;;;;;;4.50;1.50;;;3.30;99.90;;;;;;5039097;28;20048;-83
2023/01/27 04:36:23;;;;;;;7.90;1.63;;;3.30;99.90;;;;;;5038854;28;20044;-83
2023/01/27 04:38:51;;;;;;;7.05;1.67;;;3.30;99.90;;;;;;5036465;28;20474;-84
2023/01/27 04:41:17;;;;;;;5.10;1.95;;;3.20;99.90;;;;;;5043353;28;20045;-85
2023/01/27 04:43:43;;;;;;;3.70;1.70;;;3.20;99.90;;;;;;5039800;28;20622;-84
2023/01/27 04:46:08;;;;;;;7.15;1.80;;;3.10;99.90;;;;;;5025957;28;20049;-86
2023/01/27 04:48:34;;;;;;;5.10;1.88;;;3.10;99.90;;;;;;5019846;28;20272;-85
2023/01/27 04:51:00;;;;;;;4.65;1.42;;;3.00;99.90;;;;;;5044606;28;20053;-84
2023/01/27 04:53:26;;;;;;;4.45;1.60;;;2.90;99.90;;;;;;5004391;28;20083;-84
2023/01/27 04:55:52;;;;;;;7.70;2.05;;;2.90;99.90;;;;;;5021532;28;20061;-85
2023/01/27 04:58:17;;;;;;;4.07;1.77;;;2.80;99.90;;;;;;5037719;28;20107;-84
2023/01/27 05:00:44;;;;;;;7.03;1.80;;;2.70;99.90;;;;;;5022650;28;20512;-84
2023/01/27 05:03:11;;;;;;;6.38;2.00;;;2.70;99.90;;;;;;5019698;28;20041;-85
2023/01/27 05:05:37;;;;;;;6.88;2.10;;;2.60;99.90;;;;;;5023591;28;20116;-84
2023/01/27 05:08:08;;;;;;;7.35;1.98;;;2.60;99.90;;;;;;5025977;28;20487;-83
2023/01/27 05:10:35;;;;;;;5.55;2.40;;;1.30;99.90;;;;;;5023874;28;20491;-84
2023/01/27 05:13:01;;;;;;;3.92;2.00;;;2.80;99.90;;;;;;5038751;28;20091;-84
2023/01/27 05:15:28;;;;;;;3.92;1.95;;;2.80;99.90;;;;;;5019898;28;20483;-84
2023/01/27 05:17:54;;;;;;;4.07;1.90;;;2.40;99.90;;;;;;5022695;28;20585;-84
2023/01/27 05:20:20;;;;;;;5.18;2.08;;;2.60;99.90;;;;;;5025229;28;20059;-85
2023/01/27 05:22:46;;;;;;;5.50;2.17;;;2.40;99.90;;;;;;5026530;28;20791;-84
2023/01/27 05:25:12;;;;;;;8.55;2.50;;;2.60;99.90;;;;;;5025815;28;20483;-84
2023/01/27 05:27:38;;;;;;;4.97;2.08;;;2.30;99.90;;;;;;5023434;28;20056;-83
2023/01/27 05:30:04;;;;;;;7.95;2.30;;;2.30;99.90;;;;;;5038442;28;20041;-84
2023/01/27 05:32:30;;;;;;;7.85;2.55;;;2.50;99.90;;;;;;5023393;28;20053;-84
2023/01/27 05:34:56;;;;;;;6.03;2.40;;;2.30;99.90;;;;;;5037145;28;20493;-84
2023/01/27 05:37:22;;;;;;;4.20;2.00;;;2.40;99.90;;;;;;5036486;28;20111;-84
2023/01/27 05:39:47;;;;;;;4.22;2.28;;;2.20;99.90;;;;;;5009371;28;20053;-83
2023/01/27 05:42:13;;;;;;;6.70;2.28;;;2.10;99.90;;;;;;5008036;28;20037;-83
2023/01/27 05:44:39;;;;;;;6.40;2.50;;;2.10;99.90;;;;;;5003913;28;20080;-83
2023/01/27 05:47:05;;;;;;;8.13;2.50;;;2.20;99.90;;;;;;5026454;28;20099;-83
2023/01/27 05:49:32;;;;;;;3.72;2.00;;;2.10;99.90;;;;;;5052899;28;20064;-84
2023/01/27 05:51:57;;;;;;;5.20;2.20;;;2.10;99.90;;;;;;5054485;28;20044;-83
2023/01/27 05:54:23;;;;;;;5.60;2.38;;;2.00;99.90;;;;;;5036937;28;20060;-84
2023/01/27 05:56:49;;;;;;;6.20;2.38;;;2.00;99.90;;;;;;5020996;28;20053;-84
2023/01/27 05:59:15;;;;;;;8.75;2.30;;;2.00;99.90;;;;;;5021059;28;20591;-90
2023/01/27 06:01:41;;;;;;;7.15;2.35;;;2.00;99.90;;;;;;5010242;28;20551;-87
2023/01/27 06:04:08;;;;;;;9.80;2.80;;;2.00;99.90;;;;;;5022419;28;20045;-87
2023/01/27 06:06:34;;;;;;;6.00;2.45;;;2.10;99.90;;;;;;5041717;28;20052;-88
2023/01/27 06:09:00;;;;;;;7.32;2.40;;;2.80;99.90;;;;;;5036891;28;20623;-88
2023/01/27 06:11:26;;;;;;;4.60;2.22;;;2.90;99.90;;;;;;5041053;28;20049;-87
2023/01/27 06:13:53;;;;;;;5.55;2.17;;;2.00;99.90;;;;;;5031995;28;20394;-88
2023/01/27 06:16:21;;;;;;;7.15;2.20;;;1.80;99.90;;;;;;5031463;28;20053;-87
2023/01/27 06:18:47;;;;;;;5.55;2.53;;;1.80;99.90;;;;;;5043335;28;20049;-88
2023/01/27 06:21:15;;;;;;;5.60;2.53;;;1.90;99.90;;;;;;5025863;28;20048;-87
2023/01/27 06:23:41;;;;;;;5.43;2.38;;;1.90;99.90;;;;;;5013982;28;20057;-88
2023/01/27 06:26:15;;;;;;;7.25;2.67;;;1.70;99.90;;;;;;5030595;28;20049;-88
2023/01/27 06:28:41;;;;;;;6.00;2.72;;;1.80;99.90;;;;;;5029519;28;20344;-88
2023/01/27 06:31:09;;;;;;;7.35;2.50;;;1.60;99.90;;;;;;5025293;28;20049;-88
2023/01/27 06:33:36;;;;;;;3.97;2.00;;;1.60;99.90;;;;;;5030921;28;20057;-87
2023/01/27 06:36:04;;;;;;;5.35;2.40;;;1.60;99.90;;;;;;5029323;28;20084;-88
2023/01/27 06:38:30;;;;;;;6.50;2.67;;;1.90;99.90;;;;;;5032134;28;20167;-87
2023/01/27 06:40:56;;;;;;;11.60;3.08;;;2.60;99.90;;;;;;5041722;28;20125;-90
2023/01/27 06:43:22;;;;;;;5.00;3.30;;;1.60;99.90;;;;;;5016726;28;20052;-89
2023/01/27 06:45:49;;;;;;;7.90;2.75;;;0.00;99.90;;;;;;5043985;28;20045;-87
2023/01/27 06:48:15;;;;;;;6.80;2.88;;;1.60;99.90;;;;;;5024753;28;20132;-86
2023/01/27 06:50:41;;;;;;;5.15;2.67;;;1.50;99.90;;;;;;5035143;28;20178;-88
2023/01/27 06:53:07;;;;;;;6.35;3.03;;;1.50;99.90;;;;;;5025704;28;20091;-89
2023/01/27 06:55:34;;;;;;;7.85;3.13;;;1.60;99.90;;;;;;5049475;28;20494;-85
2023/01/27 06:58:01;;;;;;;4.22;2.63;;;1.70;99.90;;;;;;5027496;28;20055;-87
2023/01/27 07:00:27;;;;;;;5.13;2.88;;;1.50;99.90;;;;;;5027528;28;20137;-90
2023/01/27 07:02:56;;;;;;;7.55;2.80;;;1.50;99.90;;;;;;5014883;28;20120;-89
2023/01/27 07:05:22;;;;;;;5.60;2.75;;;1.50;99.90;;;;;;5051497;28;20045;-88
2023/01/27 07:07:48;;;;;;;5.18;2.60;;;1.40;99.90;;;;;;5042598;28;20045;-87
2023/01/27 07:10:14;;;;;;;4.93;2.40;;;1.40;99.90;;;;;;5040386;28;20041;-84
2023/01/27 07:12:39;;;;;;;7.28;2.70;;;1.50;99.90;;;;;;5007497;28;20040;-85
2023/01/27 07:15:07;;;;;;;7.35;2.97;;;1.50;99.90;;;;;;5026102;28;20041;-85
2023/01/27 07:17:36;;;;;;;7.05;2.50;;;1.40;99.90;;;;;;5024800;28;20048;-89
2023/01/27 07:20:04;;;;;;;6.75;2.40;;;1.50;99.90;;;;;;5010742;28;20806;-91
2023/01/27 07:22:30;;;;;;;4.13;2.47;;;1.50;99.90;;;;;;5022986;28;20045;-88
2023/01/27 07:24:56;;;;;;;4.95;2.38;;;1.40;99.90;;;;;;5007207;28;20064;-84
2023/01/27 07:27:24;;;;;;;6.28;2.78;;;1.40;99.90;;;;;;5038909;28;20052;-84
2023/01/27 07:29:51;;;;;;;13.85;3.03;;;2.00;99.90;;;;;;5037641;28;20049;-87
2023/01/27 07:32:17;;;;;;;3.35;2.33;;;1.50;99.90;;;;;;5027169;28;20132;-89
2023/01/27 07:34:45;;;;;;;3.45;2.28;;;2.20;99.90;;;;;;5023610;28;20436;-89
2023/01/27 07:37:13;;;;;;;4.13;2.30;;;1.50;99.90;;;;;;5026510;28;20044;-89
2023/01/27 07:39:38;;;;;;;5.60;2.10;;;1.70;99.90;;;;;;5025419;28;20052;-87
2023/01/27 07:42:06;;;;;;;5.97;2.33;;;1.50;99.90;;;;;;5023170;28;20045;-84
2023/01/27 07:44:32;;;;;;;5.95;2.45;;;1.70;99.90;;;;;;5022637;28;20060;-87
2023/01/27 07:46:58;;;;;;;4.95;2.08;;;1.60;99.90;;;;;;5030770;28;20041;-87
2023/01/27 07:49:25;;;;;;;5.15;2.28;;;1.80;99.90;;;;;;5013457;28;20056;-86
2023/01/27 07:51:51;;;;;;;4.85;2.20;;;1.70;99.90;;;;;;5035489;28;20056;-85
2023/01/27 07:54:17;;;;;;;2.78;1.83;;;1.80;99.90;;;;;;5023739;28;20102;-85
2023/01/27 07:56:42;;;;;;;3.13;1.73;;;1.70;99.90;;;;;;5024417;28;20052;-86
2023/01/27 07:59:11;;;;;;;4.25;1.88;;;1.90;99.90;;;;;;5027029;28;20049;-90
2023/01/27 08:01:40;;;;;;;2.97;1.60;;;2.00;99.90;;;;;;5024841;28;20051;-84
2023/01/27 08:04:09;;;;;;;3.88;1.77;;;1.90;99.90;;;;;;5025750;28;20049;-86
2023/01/27 08:06:38;;;;;;;4.53;1.67;;;2.10;99.90;;;;;;5017888;28;20049;-86
2023/01/27 08:09:03;;;;;;;4.20;1.70;;;2.10;99.90;;;;;;5037961;28;20060;-87
2023/01/27 08:11:29;;;;;;;6.38;2.20;;;2.20;99.90;;;;;;5024725;28;20045;-87
2023/01/27 08:13:55;;;;;;;3.72;1.60;;;2.10;99.90;;;;;;5023404;28;20045;-86
2023/01/27 08:16:21;;;;;;;4.88;1.83;;;2.10;99.90;;;;;;5018920;28;20050;-85
2023/01/27 08:18:47;;;;;;;5.35;1.63;;;2.20;99.90;;;;;;5025899;28;20374;-85
2023/01/27 08:21:13;;;;;;;3.55;1.67;;;2.30;99.90;;;;;;5019582;28;20049;-84
2023/01/27 08:23:39;;;;;;;5.18;1.98;;;2.30;99.90;;;;;;5021550;28;20040;-86
2023/01/27 08:26:06;;;;;;;4.50;2.10;;;2.30;99.90;;;;;;5036167;28;20056;-86
2023/01/27 08:28:33;;;;;;;5.13;2.05;;;2.40;99.90;;;;;;5036587;28;20113;-91
2023/01/27 08:31:14;;;;;;;5.82;1.80;;;2.70;99.90;;;;;;5036091;28;20052;-86
2023/01/27 08:33:41;;;;;;;6.38;2.20;;;2.60;99.90;;;;;;5024406;28;20076;-86
2023/01/27 08:36:10;;;;;;;6.45;2.30;;;2.50;99.90;;;;;;5035980;28;20048;-86
2023/01/27 08:38:37;;;;;;;2.85;1.58;;;2.50;99.90;;;;;;5037300;28;20041;-83
2023/01/27 08:41:09;;;;;;;5.85;1.77;;;1.10;99.90;;;;;;5024441;28;20098;-86
2023/01/27 08:43:35;;;;;;;5.18;1.90;;;2.70;99.90;;;;;;5039702;28;20053;-89
2023/01/27 08:46:01;;;;;;;6.43;2.00;;;3.00;99.90;;;;;;5006041;28;20044;-87
2023/01/27 08:48:29;;;;;;;5.57;2.10;;;2.70;99.90;;;;;;5041486;28;20040;-89
2023/01/27 08:50:55;;;;;;;3.65;1.77;;;3.00;99.90;;;;;;5039885;28;20081;-88
2023/01/27 08:53:21;;;;;;;2.45;1.35;;;2.90;99.90;;;;;;5025404;28;20048;-87
2023/01/27 08:55:47;;;;;;;8.88;1.80;;;2.90;99.90;;;;;;5019657;28;20045;-85
2023/01/27 08:58:13;;;;;;;4.40;1.40;;;2.90;99.90;;;;;;5005559;28;20589;-85
2023/01/27 09:00:42;;;;;;;5.25;1.75;;;3.00;99.90;;;;;;5009795;28;20053;-85
2023/01/27 09:03:08;;;;;;;4.97;1.67;;;3.20;99.90;;;;;;5020576;28;20128;-86
2023/01/27 09:05:36;;;;;;;5.22;1.42;;;3.20;99.90;;;;;;5036898;28;20429;-85
2023/01/27 09:08:02;;;;;;;4.65;1.40;;;3.20;99.90;;;;;;5022813;28;20045;-84
2023/01/27 09:10:28;;;;;;;2.60;1.50;;;3.10;99.90;;;;;;5017121;28;20100;-84
2023/01/27 09:12:54;;;;;;;3.10;1.80;;;2.10;99.90;;;;;;5033117;28;20053;-84
2023/01/27 09:15:20;;;;;;;4.40;1.52;;;3.20;99.90;;;;;;5006356;28;20053;-84
2023/01/27 09:17:46;;;;;;;4.18;1.73;;;3.30;99.90;;;;;;5049739;28;20053;-84
2023/01/27 09:20:12;;;;;;;2.20;1.25;;;3.40;99.90;;;;;;5005452;28;20056;-84
2023/01/27 09:22:39;;;;;;;3.03;1.40;;;3.30;99.90;;;;;;5025988;28;20040;-84
2023/01/27 09:25:07;;;;;;;3.72;1.35;;;3.30;99.90;;;;;;5036172;28;20061;-84
2023/01/27 09:27:33;;;;;;;5.45;1.30;;;;;;;;;;5025704;28;20061;-85
2023/01/27 09:29:59;;;;;;;2.72;1.30;;;3.40;99.90;;;;;;5026222;28;20057;-80
2023/01/27 09:32:25;;;;;;;3.90;1.60;;;3.40;99.90;;;;;;5020642;28;20087;-81
2023/01/27 09:34:51;;;;;;;3.53;1.65;;;3.50;99.90;;;;;;5035753;28;20098;-83
2023/01/27 09:37:17;;;;;;;3.50;1.55;;;3.50;99.90;;;;;;5021969;28;20064;-84
2023/01/27 09:39:51;;;;;;;1.65;1.13;;;3.50;99.90;;;;;;5027000;28;20053;-85
2023/01/27 09:42:54;;;;;;;3.20;1.10;;;3.70;99.90;;;;;;5041183;28;20618;-84
2023/01/27 09:45:45;;;;;;;4.03;1.20;;;3.60;99.90;;;;;;5028146;28;20064;-85
2023/01/27 09:48:26;;;;;;;4.25;1.10;;;2.70;99.90;;;;;;5025500;28;20466;-85
2023/01/27 09:51:21;;;;;;;2.78;1.10;;;4.00;99.90;;;;;;5042570;28;20269;-84
2023/01/27 09:54:10;;;;;;;3.45;1.08;;;3.70;99.90;;;;;;5046741;28;20156;-84
2023/01/27 09:57:06;;;;;;;3.72;1.10;;;3.90;99.90;;;;;;5021877;28;20142;-82
2023/01/27 09:59:43;;;;;;;2.58;1.10;;;3.90;99.90;;;;;;5034881;28;20064;-83
2023/01/27 10:02:27;;;;;;;3.92;1.40;;;3.90;99.90;;;;;;5037082;28;20049;-85
2023/01/27 10:05:16;;;;;;;4.28;0.98;;;4.00;99.90;;;;;;5037898;28;20076;-83
2023/01/27 10:07:52;;;;;;;4.07;1.00;;;4.50;99.90;;;;;;5023478;28;20573;-87
2023/01/27 10:10:46;;;;;;;;;;;;;;;;;;;;;
2023/01/27 10:13:27;;;;;;;2.78;1.13;;;4.30;99.90;;;;;;5057307;28;20041;-90
2023/01/27 10:16:03;;;;;;;1.65;0.80;;;4.10;99.90;;;;;;5027466;28;20502;-87
2023/01/27 10:18:28;;;;;;;2.05;0.80;;;2.90;99.90;;;;;;5039165;28;20449;-87
2023/01/27 10:20:59;;;;;;;4.32;1.05;;;4.20;99.90;;;;;;5023933;28;20243;-84
2023/01/27 10:23:58;;;;;;;3.25;1.00;;;4.20;99.90;;;;;;5043414;28;20723;-86
2023/01/27 10:26:46;;;;;;;4.20;1.30;;;4.00;99.90;;;;;;5032221;28;20056;-85
2023/01/27 10:29:25;;;;;;;4.60;1.23;;;4.50;99.90;;;;;;5026979;28;20049;-86
2023/01/27 10:32:06;;;;;;;4.47;1.52;;;4.40;99.90;;;;;;5041303;28;20041;-87
2023/01/27 10:34:34;;;;;;;1.55;0.80;;;4.50;99.90;;;;;;5029161;28;20160;-85
2023/01/27 10:37:09;;;;;;;2.17;0.98;;;4.50;99.90;;;;;;5032561;28;20053;-84
2023/01/27 10:39:53;;;;;;;5.82;1.30;;;4.70;99.90;;;;;;5025562;28;20115;-85
2023/01/27 10:42:54;;;;;;;2.10;0.98;;;5.00;99.90;;;;;;5027104;28;20046;-85
2023/01/27 10:45:31;;;;;;;2.53;0.90;;;4.90;99.90;;;;;;5013933;28;20064;-87
2023/01/27 10:48:35;;;;;;;1.90;1.00;;;5.00;99.90;;;;;;5048407;28;20057;-86
2023/01/27 10:51:04;;;;;;;3.30;1.10;;;5.30;99.90;;;;;;5028309;28;20057;-85
2023/01/27 10:53:43;;;;;;;2.75;1.02;;;5.40;99.90;;;;;;5046279;28;20124;-85
2023/01/27 10:56:18;;;;;;;2.85;1.00;;;5.70;99.90;;;;;;5025452;28;20180;-87
2023/01/27 10:58:54;;;;;;;3.47;0.85;;;6.10;99.90;;;;;;5047521;28;20053;-86
2023/01/27 11:01:35;;;;;;;1.90;1.05;;;6.30;99.90;;;;;;5045517;28;20251;-85
2023/01/27 11:04:12;;;;;;;3.38;0.93;;;6.40;99.90;;;;;;5041001;28;20040;-86
2023/01/27 11:06:41;;;;;;;2.15;1.08;;;6.70;99.90;;;;;;5060052;28;20551;-86
2023/01/27 11:09:49;;;;;;;4.07;1.13;;;5.50;99.90;;;;;;5047311;28;20504;-85
2023/01/27 11:12:19;;;;;;;2.65;1.10;;;6.90;99.90;;;;;;5002267;28;20060;-85
2023/01/27 11:14:50;;;;;;;2.17;0.93;;;6.80;99.90;;;;;;5039460;28;20053;-85
2023/01/27 11:17:30;;;;;;;2.83;0.98;;;6.80;99.90;;;;;;5025207;28;20076;-86
2023/01/27 11:19:58;;;;;;;2.30;0.88;;;6.60;99.90;;;;;;5024902;28;20434;-86
2023/01/27 11:22:48;;;;;;;1.75;0.73;;;6.50;99.90;;;;;;5045036;28;20061;-87
2023/01/27 11:25:31;;;;;;;2.35;1.15;;;6.50;99.90;;;;;;5024420;28;20080;-85
2023/01/27 11:28:20;;;;;;;2.63;1.10;;;6.40;99.90;;;;;;5025640;28;20045;-87
2023/01/27 11:31:18;;;;;;;0.70;0.60;;;6.40;99.90;;;;;;5038945;28;20055;-86
2023/01/27 11:33:59;;;;;;;1.80;0.95;;;6.00;99.90;;;;;;5030161;28;20833;-89
2023/01/27 11:36:25;;;;;;;2.33;0.77;;;6.20;99.90;;;;;;5025159;28;20110;-85
2023/01/27 11:38:53;;;;;;;4.93;1.00;;;5.90;99.90;;;;;;5011376;28;20056;-87
2023/01/27 11:41:20;;;;;;;3.17;0.93;;;5.80;99.90;;;;;;5027265;28;20063;-89
2023/01/27 11:43:46;;;;;;;1.30;0.60;;;5.90;99.90;;;;;;5041630;28;20132;-90
2023/01/27 11:46:19;;;;;;;2.80;1.13;;;5.70;99.90;;;;;;5028288;28;20202;-87
2023/01/27 11:48:51;;;;;;;1.60;0.70;;;5.80;99.90;;;;;;5047879;28;20065;-88
2023/01/27 11:51:38;;;;;;;3.55;0.80;;;5.90;99.90;;;;;;5048248;28;20048;-92
2023/01/27 11:54:15;;;;;;;3.20;0.80;;;5.90;99.90;;;;;;5046758;28;20220;-87
2023/01/27 11:56:45;;;;;;;1.35;0.70;;;6.10;99.90;;;;;;5039995;28;20103;-87
2023/01/27 11:59:37;;;;;;;2.10;0.80;;;6.00;99.90;;;;;;5039156;28;20041;-86
2023/01/27 12:02:06;;;;;;;1.42;0.80;;;6.20;99.90;;;;;;5042357;28;20558;-87
2023/01/27 12:04:38;;;;;;;2.40;0.80;;;6.20;99.90;;;;;;5040548;28;20045;-86
2023/01/27 12:07:13;;;;;;;2.95;0.85;;;6.20;99.90;;;;;;5056446;28;20478;-85
2023/01/27 12:09:40;;;;;;;3.10;1.17;;;6.60;99.90;;;;;;5039560;28;20052;-87
2023/01/27 12:12:12;;;;;;;4.78;1.80;;;6.90;99.90;;;;;;5029013;28;20044;-89
2023/01/27 12:14:46;;;;;;;4.82;1.90;;;6.20;99.90;;;;;;5026929;28;20068;-92
2023/01/27 12:17:27;;;;;;;2.53;1.45;;;6.10;99.90;;;;;;5039896;28;20045;-89
2023/01/27 12:19:56;;;;;;;3.60;1.80;;;6.00;99.90;;;;;;5060313;28;20494;-87
2023/01/27 12:22:38;;;;;;;2.38;1.27;;;6.00;99.90;;;;;;5023856;28;20059;-91
2023/01/27 12:25:18;;;;;;;2.47;0.80;;;5.60;99.90;;;;;;5013378;28;20482;-89
2023/01/27 12:27:52;;;;;;;2.47;0.80;;;5.80;99.90;;;;;;5029238;28;20080;-89
2023/01/27 12:30:25;;;;;;;4.05;1.20;;;5.80;99.90;;;;;;5043435;28;20044;-90
2023/01/27 12:32:52;;;;;;;2.95;1.33;;;5.70;99.90;;;;;;5057604;28;20068;-91
2023/01/27 12:35:20;;;;;;;3.25;1.23;;;5.70;99.90;;;;;;5030470;28;20041;-91
2023/01/27 12:37:57;;;;;;;6.70;1.40;;;5.70;99.90;;;;;;5042446;28;20048;-91
2023/01/27 12:40:33;;;;;;;3.25;0.80;;;7.10;99.90;;;;;;5027191;28;20517;-92
2023/01/27 12:43:10;;;;;;;1.98;0.93;;;5.70;99.90;;;;;;5040169;28;20056;-87
2023/01/27 12:45:37;;;;;;;2.03;0.95;;;5.60;99.90;;;;;;5056305;28;20053;-88
2023/01/27 12:48:09;;;;;;;1.90;0.93;;;5.90;99.90;;;;;;5012480;28;20118;-86
2023/01/27 12:50:43;;;;;;;5.10;1.42;;;5.70;99.90;;;;;;5043068;28;20075;-87
2023/01/27 12:53:19;;;;;;;3.20;1.10;;;5.70;99.90;;;;;;5041812;28;20141;-87
2023/01/27 12:56:11;;;;;;;1.75;1.02;;;5.60;99.90;;;;;;5047311;28;20178;-87
2023/01/27 12:58:58;;;;;;;4.10;1.00;;;5.70;99.90;;;;;;5041523;28;20498;-88
2023/01/27 13:01:36;;;;;;;3.10;0.98;;;5.80;99.90;;;;;;5031413;28;20037;-88
2023/01/27 13:04:12;;;;;;;2.95;1.08;;;5.50;99.90;;;;;;5041215;28;20052;-88
2023/01/27 13:07:04;;;;;;;3.28;1.10;;;5.60;99.90;;;;;;5021487;28;20110;-88
2023/01/27 13:09:38;;;;;;;1.55;0.70;;;5.50;99.90;;;;;;5044645;28;20123;-87
2023/01/27 13:12:27;;;;;;;1.08;0.70;;;5.60;99.90;;;;;;5034710;28;20041;-86
2023/01/27 13:14:58;;;;;;;3.03;0.98;;;5.40;99.90;;;;;;5051153;28;20048;-88
2023/01/27 13:17:51;;;;;;;4.15;1.23;;;5.60;99.90;;;;;;5060544;28;20052;-87
2023/01/27 13:20:29;;;;;;;2.17;1.02;;;5.40;99.90;;;;;;5029465;28;20095;-87
2023/01/27 13:23:12;;;;;;;3.35;1.20;;;5.50;99.90;;;;;;5027369;28;20056;-87
2023/01/27 13:25:51;;;;;;;4.72;1.48;;;5.20;99.90;;;;;;5042837;28;20478;-88
2023/01/27 13:28:42;;;;;;;2.25;1.10;;;5.20;99.90;;;;;;5040374;28;20084;-90
2023/01/27 13:31:21;;;;;;;2.28;1.20;;;4.30;99.90;;;;;;4997692;28;20049;-90
2023/01/27 13:34:36;;;;;;;2.63;0.95;;;5.20;99.90;;;;;;5036792;28;20276;-90
2023/01/27 13:37:19;;;;;;;5.00;1.30;;;5.10;99.90;;;;;;4998970;28;20132;-89
2023/01/27 13:40:00;;;;;;;1.40;0.80;;;5.20;99.90;;;;;;5028675;28;20242;-88
2023/01/27 13:42:58;;;;;;;1.58;0.85;;;5.20;99.90;;;;;;5039941;28;20044;-87
2023/01/27 13:45:36;;;;;;;1.98;0.80;;;6.70;99.90;;;;;;5040593;28;20052;-84
2023/01/27 13:48:14;;;;;;;2.65;0.70;;;5.00;99.90;;;;;;5019542;28;20060;-83
2023/01/27 13:50:57;;;;;;;1.65;0.68;;;5.20;99.90;;;;;;5030244;28;20175;-84
2023/01/27 13:53:24;;;;;;;1.20;0.90;;;5.10;99.90;;;;;;5032463;28;20081;-85